Time;durP1;ratioP1;P1;durP2;ratioP2;P2;SDS_P1;SDS_P2;PMS_P1;PMS_P2;Temp;Humidity;BMP_temperature;BMP_pressure;BME280_temperature;BME280_humidity;BME280_pressure;Samples;Min_cycle;Max_cycle;Signal;HPM_P1;HPM_P2
2022/04/23 00:02:21;;;;;;;13.45;12.25;;;10.60;99.90;;;;;;5084951;28;20329;-62
2022/04/23 00:04:49;;;;;;;13.38;12.15;;;10.50;99.90;;;;;;5089781;28;20322;-62
2022/04/23 00:07:17;;;;;;;13.52;12.43;;;10.50;99.90;;;;;;5084854;28;20292;-61
2022/04/23 00:09:45;;;;;;;14.15;12.55;;;10.50;99.90;;;;;;5089429;28;20236;-61
2022/04/23 00:12:13;;;;;;;14.98;13.68;;;10.50;99.90;;;;;;5085849;28;20260;-61
2022/04/23 00:14:42;;;;;;;14.32;13.02;;;10.40;99.90;;;;;;5085962;28;20222;-61
2022/04/23 00:17:11;;;;;;;14.07;12.85;;;10.40;99.90;;;;;;5086843;28;20202;-61
2022/04/23 00:19:40;;;;;;;14.48;13.05;;;10.40;99.90;;;;;;5084912;28;20199;-61
2022/04/23 00:22:08;;;;;;;14.57;13.13;;;10.30;99.90;;;;;;5085158;28;20218;-62
2022/04/23 00:24:36;;;;;;;13.93;12.70;;;10.30;99.90;;;;;;5085717;28;21692;-61
2022/04/23 00:27:04;;;;;;;16.33;14.63;;;10.30;99.90;;;;;;5085068;28;21646;-62
2022/04/23 00:29:32;;;;;;;15.13;13.40;;;10.30;99.90;;;;;;5091319;28;20202;-61
2022/04/23 00:32:00;;;;;;;15.50;14.30;;;10.30;99.90;;;;;;5084076;28;20206;-62
2022/04/23 00:34:29;;;;;;;14.57;13.38;;;10.30;99.90;;;;;;5083143;28;20714;-62
2022/04/23 00:36:57;;;;;;;15.55;14.13;;;10.20;99.90;;;;;;5087137;28;20228;-62
2022/04/23 00:39:25;;;;;;;15.27;13.77;;;10.20;99.90;;;;;;5087016;28;20285;-62
2022/04/23 00:41:57;;;;;;;15.38;13.88;;;10.20;99.90;;;;;;5083725;28;20908;-62
2022/04/23 00:44:25;;;;;;;15.02;13.52;;;10.20;99.90;;;;;;5088325;28;20703;-62
2022/04/23 00:46:53;;;;;;;15.52;14.13;;;10.20;99.90;;;;;;5084755;28;20269;-62
2022/04/23 00:49:21;;;;;;;15.55;14.15;;;10.20;99.90;;;;;;5086094;28;20997;-61
2022/04/23 00:51:51;;;;;;;15.52;14.18;;;10.10;99.90;;;;;;5086155;28;20198;-60
2022/04/23 00:54:21;;;;;;;15.82;14.43;;;10.10;99.90;;;;;;5084971;28;20280;-62
2022/04/23 00:56:49;;;;;;;16.15;14.80;;;10.10;99.90;;;;;;5084097;28;20674;-62
2022/04/23 00:59:17;;;;;;;17.75;16.02;;;10.10;99.90;;;;;;5084178;28;20218;-62
2022/04/23 01:01:45;;;;;;;16.25;14.65;;;10.10;99.90;;;;;;5085800;28;20248;-60
2022/04/23 01:04:14;;;;;;;15.88;14.48;;;10.10;99.90;;;;;;5084479;28;20223;-62
2022/04/23 01:06:45;;;;;;;16.70;15.30;;;10.10;99.90;;;;;;5086104;28;20247;-62
2022/04/23 01:09:14;;;;;;;17.48;15.88;;;10.10;99.90;;;;;;5084591;28;20226;-62
2022/04/23 01:11:42;;;;;;;17.92;16.30;;;10.00;99.90;;;;;;5084661;28;20252;-61
2022/04/23 01:14:11;;;;;;;17.02;15.43;;;10.00;99.90;;;;;;5085211;28;20280;-62
2022/04/23 01:16:39;;;;;;;15.35;13.95;;;10.00;99.90;;;;;;5085845;28;20203;-62
2022/04/23 01:19:07;;;;;;;17.05;15.55;;;10.00;99.90;;;;;;5084578;28;20282;-62
2022/04/23 01:21:36;;;;;;;17.25;15.63;;;10.00;99.90;;;;;;5084780;28;20282;-62
2022/04/23 01:24:06;;;;;;;17.67;16.05;;;9.90;99.90;;;;;;5083366;28;20305;-62
2022/04/23 01:26:34;;;;;;;18.45;16.75;;;9.90;99.90;;;;;;5085071;28;20282;-61
2022/04/23 01:29:02;;;;;;;19.17;17.30;;;9.90;99.90;;;;;;5090480;28;20194;-62
2022/04/23 01:31:30;;;;;;;17.55;15.95;;;9.90;99.90;;;;;;5090439;28;20207;-62
2022/04/23 01:33:59;;;;;;;17.58;16.02;;;9.90;99.90;;;;;;5081165;28;20210;-62
2022/04/23 01:36:27;;;;;;;17.30;15.70;;;9.90;99.90;;;;;;5083947;28;20198;-62
2022/04/23 01:38:56;;;;;;;17.55;15.77;;;9.80;99.90;;;;;;5085599;28;20195;-62
2022/04/23 01:41:23;;;;;;;17.55;15.90;;;9.90;99.90;;;;;;5085276;28;20289;-62
2022/04/23 01:43:51;;;;;;;18.35;16.45;;;9.80;99.90;;;;;;5085019;28;20252;-62
2022/04/23 01:46:19;;;;;;;18.55;16.85;;;9.80;99.90;;;;;;5085076;28;20194;-62
2022/04/23 01:48:49;;;;;;;19.58;16.98;;;9.90;99.90;;;;;;5083893;28;20210;-61
2022/04/23 01:51:16;;;;;;;19.42;17.73;;;9.80;99.90;;;;;;5084785;28;20199;-61
2022/04/23 01:53:44;;;;;;;19.45;17.65;;;9.80;99.90;;;;;;5083857;28;20226;-62
2022/04/23 01:56:13;;;;;;;17.35;15.85;;;9.80;99.90;;;;;;5085322;28;20219;-62
2022/04/23 01:58:41;;;;;;;20.38;18.25;;;9.80;99.90;;;;;;5084993;28;20268;-62
2022/04/23 02:01:09;;;;;;;19.88;17.98;;;9.80;99.90;;;;;;5084100;28;20223;-63
2022/04/23 02:03:37;;;;;;;18.42;16.70;;;9.80;99.90;;;;;;5082954;28;20218;-62
2022/04/23 02:06:05;;;;;;;17.98;16.33;;;9.80;99.90;;;;;;5084112;28;20268;-62
2022/04/23 02:08:33;;;;;;;18.95;17.30;;;9.80;99.90;;;;;;5090390;28;20233;-62
2022/04/23 02:11:01;;;;;;;19.88;17.80;;;9.80;99.90;;;;;;5084485;28;20268;-62
2022/04/23 02:13:31;;;;;;;18.65;17.00;;;9.80;99.90;;;;;;5085888;28;20699;-62
2022/04/23 02:15:59;;;;;;;19.33;17.40;;;9.80;99.90;;;;;;5088695;28;20245;-62
2022/04/23 02:18:28;;;;;;;18.90;17.20;;;9.70;99.90;;;;;;5088495;28;20199;-62
2022/04/23 02:20:56;;;;;;;19.75;17.67;;;9.70;99.90;;;;;;5087680;28;20226;-62
2022/04/23 02:23:24;;;;;;;17.13;15.73;;;9.70;99.90;;;;;;5089728;28;20706;-62
2022/04/23 02:25:51;;;;;;;18.58;16.90;;;9.60;99.90;;;;;;5091882;28;20260;-62
2022/04/23 02:28:19;;;;;;;18.80;17.02;;;9.60;99.90;;;;;;5086540;28;20199;-61
2022/04/23 02:30:49;;;;;;;18.02;16.38;;;9.60;99.90;;;;;;5091985;28;20202;-62
2022/04/23 02:33:16;;;;;;;18.73;16.92;;;9.70;99.90;;;;;;5087893;28;20618;-62
2022/04/23 02:35:44;;;;;;;18.83;17.17;;;9.60;99.90;;;;;;5085346;28;20810;-62
2022/04/23 02:38:14;;;;;;;17.33;15.70;;;9.60;99.90;;;;;;5087674;28;20209;-62
2022/04/23 02:40:42;;;;;;;18.38;16.80;;;9.60;99.90;;;;;;5091773;28;20199;-62
2022/04/23 02:43:12;;;;;;;17.00;15.68;;;9.60;99.90;;;;;;5085640;28;20223;-62
2022/04/23 02:45:41;;;;;;;20.02;17.55;;;9.50;99.90;;;;;;5085700;28;20215;-62
2022/04/23 02:48:10;;;;;;;20.20;18.50;;;9.50;99.90;;;;;;5086831;28;20198;-62
2022/04/23 02:50:39;;;;;;;17.67;16.27;;;9.50;99.90;;;;;;5088564;28;20233;-62
2022/04/23 02:53:09;;;;;;;19.08;17.38;;;9.40;99.90;;;;;;5087110;28;20209;-62
2022/04/23 02:55:38;;;;;;;20.60;18.50;;;9.50;99.90;;;;;;5087002;28;20317;-61
2022/04/23 02:58:08;;;;;;;19.77;17.95;;;9.50;99.90;;;;;;5087216;28;20207;-61
2022/04/23 03:00:38;;;;;;;19.50;17.70;;;9.50;99.90;;;;;;5087020;28;20287;-61
2022/04/23 03:03:07;;;;;;;20.63;18.63;;;9.60;99.90;;;;;;5086146;28;20199;-61
2022/04/23 03:05:37;;;;;;;19.33;17.73;;;9.60;99.90;;;;;;5087177;28;20692;-62
2022/04/23 03:08:05;;;;;;;19.58;17.85;;;9.60;99.90;;;;;;5086490;28;20251;-61
2022/04/23 03:10:33;;;;;;;19.50;17.70;;;9.60;99.90;;;;;;5084918;28;20198;-61
2022/04/23 03:13:01;;;;;;;19.67;18.08;;;9.60;99.90;;;;;;5086030;28;20766;-61
2022/04/23 03:15:29;;;;;;;20.00;18.13;;;9.70;99.90;;;;;;5087189;28;20313;-62
2022/04/23 03:18:05;;;;;;;19.50;17.75;;;9.60;99.90;;;;;;5085597;28;20198;-61
2022/04/23 03:20:33;;;;;;;18.38;16.85;;;9.60;99.90;;;;;;5087039;28;20203;-62
2022/04/23 03:23:03;;;;;;;18.27;16.77;;;9.60;99.90;;;;;;5086883;28;20747;-61
2022/04/23 03:25:32;;;;;;;17.95;16.45;;;9.60;99.90;;;;;;5084428;28;20222;-61
2022/04/23 03:28:00;;;;;;;18.25;16.65;;;9.60;99.90;;;;;;5086144;28;20297;-61
2022/04/23 03:30:28;;;;;;;18.05;16.45;;;9.60;99.90;;;;;;5086954;28;20725;-62
2022/04/23 03:32:58;;;;;;;18.95;16.95;;;9.70;99.90;;;;;;5088945;28;20219;-62
2022/04/23 03:35:26;;;;;;;19.85;18.05;;;9.70;99.90;;;;;;5079957;28;20599;-62
2022/04/23 03:37:55;;;;;;;19.50;17.80;;;9.70;99.90;;;;;;5082692;28;20206;-62
2022/04/23 03:40:26;;;;;;;19.10;17.52;;;9.60;99.90;;;;;;5089823;28;20631;-61
2022/04/23 03:42:54;;;;;;;18.15;16.55;;;9.70;99.90;;;;;;5086688;28;20277;-61
2022/04/23 03:45:23;;;;;;;18.98;17.27;;;9.70;99.90;;;;;;5086856;28;20222;-62
2022/04/23 03:47:51;;;;;;;19.33;17.48;;;9.70;99.90;;;;;;5090003;28;20678;-61
2022/04/23 03:50:20;;;;;;;17.80;16.20;;;9.70;99.90;;;;;;5085569;28;20226;-61
2022/04/23 03:52:49;;;;;;;19.67;18.00;;;9.70;99.90;;;;;;5088418;28;20282;-63
2022/04/23 03:55:17;;;;;;;17.98;16.30;;;9.70;99.90;;;;;;5084479;28;20225;-62
2022/04/23 03:57:50;;;;;;;18.00;16.40;;;9.70;99.90;;;;;;5086489;28;20225;-62
2022/04/23 04:00:21;;;;;;;19.30;17.60;;;9.70;99.90;;;;;;5085636;28;20249;-61
2022/04/23 04:02:49;;;;;;;17.83;16.30;;;9.70;99.90;;;;;;5084166;28;20195;-62
2022/04/23 04:05:18;;;;;;;17.17;15.77;;;9.70;99.90;;;;;;5085272;28;20230;-61
2022/04/23 04:07:47;;;;;;;16.83;15.32;;;9.80;99.90;;;;;;5089308;28;20222;-62
2022/04/23 04:10:18;;;;;;;17.52;16.08;;;9.80;99.90;;;;;;5088634;28;20293;-62
2022/04/23 04:12:46;;;;;;;16.83;15.43;;;9.80;99.90;;;;;;5089795;28;20286;-61
2022/04/23 04:15:16;;;;;;;17.00;15.35;;;9.80;99.90;;;;;;5085898;28;20249;-61
2022/04/23 04:17:47;;;;;;;17.35;15.85;;;9.80;99.90;;;;;;5085544;28;20216;-61
2022/04/23 04:20:15;;;;;;;16.42;14.77;;;9.80;99.90;;;;;;5086092;28;20210;-62
2022/04/23 04:22:44;;;;;;;17.42;15.90;;;9.90;99.90;;;;;;5086042;28;20597;-61
2022/04/23 04:25:13;;;;;;;15.27;13.98;;;9.90;99.90;;;;;;5085829;28;20262;-62
2022/04/23 04:27:41;;;;;;;15.77;14.40;;;9.90;99.90;;;;;;5086333;28;20278;-62
2022/04/23 04:30:11;;;;;;;14.30;13.10;;;10.00;99.90;;;;;;5085378;28;20609;-62
2022/04/23 04:32:41;;;;;;;15.93;14.52;;;9.90;99.90;;;;;;5085412;28;20202;-61
2022/04/23 04:35:10;;;;;;;14.30;13.10;;;10.00;99.90;;;;;;5084174;28;20231;-62
2022/04/23 04:37:39;;;;;;;15.23;13.93;;;10.00;99.90;;;;;;5085857;28;20203;-62
2022/04/23 04:40:08;;;;;;;15.13;13.88;;;10.10;99.90;;;;;;5083850;28;20198;-61
2022/04/23 04:42:36;;;;;;;15.60;14.20;;;10.10;99.90;;;;;;5084338;28;20198;-61
2022/04/23 04:45:05;;;;;;;14.10;12.80;;;10.10;99.90;;;;;;5083670;28;20224;-62
2022/04/23 04:47:33;;;;;;;11.88;10.93;;;10.10;99.90;;;;;;5090262;28;20202;-61
2022/04/23 04:50:02;;;;;;;13.50;12.43;;;10.20;99.90;;;;;;5084381;28;20225;-62
2022/04/23 04:52:30;;;;;;;13.38;12.07;;;10.20;99.90;;;;;;5085097;28;20301;-62
2022/04/23 04:54:58;;;;;;;13.10;12.00;;;10.20;99.90;;;;;;5084571;28;20336;-62
2022/04/23 04:57:26;;;;;;;13.63;12.50;;;10.20;99.90;;;;;;5086412;28;20195;-62
2022/04/23 04:59:54;;;;;;;12.98;11.80;;;10.20;99.90;;;;;;5084958;28;20590;-61
2022/04/23 05:02:22;;;;;;;13.25;11.85;;;10.30;99.90;;;;;;5085978;28;20699;-61
2022/04/23 05:04:50;;;;;;;12.35;11.15;;;10.30;99.90;;;;;;5084802;28;20229;-61
2022/04/23 05:07:19;;;;;;;11.75;10.68;;;10.30;99.90;;;;;;5085020;28;20233;-61
2022/04/23 05:09:47;;;;;;;11.75;10.85;;;10.40;99.90;;;;;;5081556;28;20237;-61
2022/04/23 05:12:15;;;;;;;12.30;11.25;;;10.50;99.90;;;;;;5074343;28;20328;-62
2022/04/23 05:14:43;;;;;;;10.90;10.00;;;10.60;99.90;;;;;;5084457;28;20277;-61
2022/04/23 05:17:17;;;;;;;10.95;10.05;;;10.60;99.90;;;;;;5090508;28;20230;-60
2022/04/23 05:19:45;;;;;;;9.90;9.18;;;10.70;99.90;;;;;;5090486;28;20237;-61
2022/04/23 05:22:13;;;;;;;9.70;8.90;;;10.80;99.90;;;;;;5089376;28;20267;-62
2022/04/23 05:24:42;;;;;;;10.93;10.10;;;10.90;99.90;;;;;;5090064;28;20679;-61
2022/04/23 05:27:11;;;;;;;10.25;9.45;;;10.90;99.90;;;;;;5090259;28;20214;-61
2022/04/23 05:29:39;;;;;;;9.82;9.02;;;10.90;99.90;;;;;;5090084;28;20297;-60
2022/04/23 05:32:07;;;;;;;9.93;9.05;;;10.90;99.90;;;;;;5089863;28;20245;-62
2022/04/23 05:34:35;;;;;;;9.55;8.85;;;10.90;99.90;;;;;;5078498;28;20710;-61
2022/04/23 05:37:04;;;;;;;9.77;8.93;;;11.00;99.90;;;;;;5087138;28;20208;-62
2022/04/23 05:39:32;;;;;;;9.38;8.68;;;11.00;99.90;;;;;;5090026;28;20202;-61
2022/04/23 05:42:02;;;;;;;10.05;9.25;;;11.10;99.90;;;;;;5089235;28;20532;-62
2022/04/23 05:44:29;;;;;;;10.68;9.77;;;11.10;99.90;;;;;;5090101;28;20305;-62
2022/04/23 05:46:57;;;;;;;9.10;8.40;;;11.20;99.90;;;;;;5090210;28;20317;-61
2022/04/23 05:49:27;;;;;;;9.32;8.55;;;11.10;99.90;;;;;;5091408;28;20659;-61
2022/04/23 05:52:15;;;;;;;9.32;8.63;;;11.20;99.90;;;;;;5093786;28;20214;-61
2022/04/23 05:54:42;;;;;;;9.13;8.43;;;11.40;99.90;;;;;;5093928;28;20242;-62
2022/04/23 05:57:12;;;;;;;9.27;8.55;;;11.50;99.90;;;;;;5094213;28;20609;-62
2022/04/23 05:59:40;;;;;;;10.07;8.23;;;11.50;99.90;;;;;;5093680;28;20605;-63
2022/04/23 06:02:08;;;;;;;9.25;8.55;;;11.50;99.90;;;;;;5093519;28;20234;-61
2022/04/23 06:04:38;;;;;;;8.63;7.93;;;11.70;99.90;;;;;;5091032;28;20226;-61
2022/04/23 06:07:07;;;;;;;8.68;8.07;;;11.60;99.90;;;;;;5088560;28;20230;-61
2022/04/23 06:09:35;;;;;;;8.35;7.70;;;11.60;99.90;;;;;;5093744;28;20274;-61
2022/04/23 06:12:07;;;;;;;9.07;8.27;;;11.50;99.90;;;;;;5093240;28;20659;-60
2022/04/23 06:14:36;;;;;;;8.98;8.27;;;11.40;99.90;;;;;;5093767;28;20226;-61
2022/04/23 06:17:08;;;;;;;9.77;9.02;;;11.50;99.90;;;;;;5093664;28;20737;-61
2022/04/23 06:19:37;;;;;;;9.38;8.48;;;11.50;99.90;;;;;;5093443;28;20678;-61
2022/04/23 06:22:05;;;;;;;9.80;8.98;;;11.50;99.90;;;;;;5093481;28;20210;-61
2022/04/23 06:24:33;;;;;;;9.48;8.73;;;11.60;99.90;;;;;;5093784;28;20218;-61
2022/04/23 06:27:02;;;;;;;9.45;8.75;;;11.70;99.90;;;;;;5093945;28;20305;-61
2022/04/23 06:29:38;;;;;;;10.20;9.25;;;11.70;99.90;;;;;;5093734;28;20202;-61
2022/04/23 06:32:07;;;;;;;11.13;10.10;;;11.70;99.90;;;;;;5091806;28;20251;-62
2022/04/23 06:34:35;;;;;;;11.85;10.88;;;11.70;99.90;;;;;;5082952;28;20247;-62
2022/04/23 06:37:04;;;;;;;11.32;10.32;;;11.80;99.90;;;;;;5080435;28;20682;-61
2022/04/23 06:39:32;;;;;;;12.18;11.15;;;11.80;99.90;;;;;;5079037;28;20270;-61
2022/04/23 06:42:00;;;;;;;10.77;9.98;;;11.90;99.90;;;;;;5085180;28;20256;-63
2022/04/23 06:44:28;;;;;;;10.18;9.38;;;11.90;99.90;;;;;;5083457;28;20769;-62
2022/04/23 06:46:57;;;;;;;11.38;10.38;;;12.00;99.90;;;;;;5083200;28;20277;-62
2022/04/23 06:49:27;;;;;;;11.05;10.15;;;12.10;99.90;;;;;;5079899;28;20321;-61
2022/04/23 06:51:55;;;;;;;10.23;9.35;;;12.10;99.90;;;;;;5085093;28;20194;-60
2022/04/23 06:54:24;;;;;;;11.13;10.32;;;12.10;99.90;;;;;;5077431;28;20223;-60
2022/04/23 06:56:52;;;;;;;10.32;8.32;;;12.20;99.90;;;;;;5081228;28;20199;-61
2022/04/23 06:59:20;;;;;;;10.43;9.45;;;12.30;99.90;;;;;;5079086;28;20274;-61
2022/04/23 07:01:47;;;;;;;9.75;8.85;;;12.30;99.90;;;;;;5084117;28;20247;-61
2022/04/23 07:04:17;;;;;;;8.85;8.07;;;12.50;99.90;;;;;;5082848;28;20291;-61
2022/04/23 07:06:45;;;;;;;9.32;8.50;;;12.70;99.90;;;;;;5081128;28;20692;-61
2022/04/23 07:09:13;;;;;;;9.43;8.63;;;12.80;99.90;;;;;;5075412;28;20286;-61
2022/04/23 07:11:41;;;;;;;9.18;8.25;;;12.90;99.90;;;;;;5075503;28;21029;-62
2022/04/23 07:14:09;;;;;;;9.60;8.85;;;12.80;99.90;;;;;;5074494;28;20223;-62
2022/04/23 07:16:37;;;;;;;8.60;7.90;;;12.80;99.90;;;;;;5076338;28;20286;-61
2022/04/23 07:19:07;;;;;;;8.40;7.65;;;12.80;99.90;;;;;;5078869;28;20196;-62
2022/04/23 07:21:36;;;;;;;8.80;8.00;;;12.80;99.90;;;;;;5073458;28;20191;-60
2022/04/23 07:24:05;;;;;;;9.70;8.90;;;12.80;99.90;;;;;;5078040;28;20268;-60
2022/04/23 07:26:35;;;;;;;9.30;8.50;;;12.90;99.90;;;;;;5077479;28;20215;-61
2022/04/23 07:29:05;;;;;;;9.57;8.88;;;13.00;99.90;;;;;;5085293;28;21640;-63
2022/04/23 07:31:33;;;;;;;10.25;9.45;;;13.10;99.90;;;;;;5077826;28;20195;-61
2022/04/23 07:39:36;;;;;;;10.02;9.18;;;13.30;99.90;;;;;;5077321;28;20738;-62
2022/04/23 07:42:06;;;;;;;9.55;8.75;;;13.40;99.90;;;;;;5083596;28;20210;-62
2022/04/23 07:44:34;;;;;;;9.52;8.73;;;13.50;99.90;;;;;;5081744;28;20707;-62
2022/04/23 07:47:04;;;;;;;9.30;8.60;;;13.50;99.90;;;;;;5087493;28;21147;-63
2022/04/23 07:49:32;;;;;;;9.05;8.35;;;13.60;99.90;;;;;;5090814;28;20289;-64
2022/04/23 07:52:02;;;;;;;8.05;7.55;;;13.70;99.90;;;;;;5087467;28;20657;-64
2022/04/23 07:54:30;;;;;;;9.73;8.98;;;14.00;99.90;;;;;;5085753;28;20257;-66
2022/04/23 07:56:58;;;;;;;8.60;7.90;;;14.20;99.90;;;;;;5085193;28;20298;-63
2022/04/23 07:59:26;;;;;;;7.78;7.10;;;14.10;99.90;;;;;;5082902;28;20242;-63
2022/04/23 08:01:56;;;;;;;7.03;6.53;;;14.10;99.90;;;;;;5085584;28;20205;-65
2022/04/23 08:04:24;;;;;;;8.32;7.72;;;14.20;99.90;;;;;;5082705;28;20223;-62
2022/04/23 08:06:52;;;;;;;7.22;6.68;;;14.40;99.90;;;;;;5083766;28;20260;-62
2022/04/23 08:09:21;;;;;;;8.95;6.70;;;14.60;99.90;;;;;;5084847;28;20256;-62
2022/04/23 08:11:49;;;;;;;6.20;5.78;;;14.50;99.90;;;;;;5085778;28;20298;-62
2022/04/23 08:14:17;;;;;;;5.80;5.30;;;14.40;99.90;;;;;;5084365;28;20218;-61
2022/04/23 08:16:48;;;;;;;5.30;4.90;;;14.20;99.90;;;;;;5085508;28;20190;-64
2022/04/23 08:19:17;;;;;;;5.63;5.22;;;14.10;99.90;;;;;;5091502;28;20203;-64
2022/04/23 08:21:45;;;;;;;5.40;4.90;;;14.20;99.90;;;;;;5091058;28;20222;-63
2022/04/23 08:24:13;;;;;;;5.38;4.97;;;14.30;99.90;;;;;;5091361;28;20231;-62
2022/04/23 08:26:42;;;;;;;5.85;5.45;;;14.50;99.90;;;;;;5091017;28;20234;-64
2022/04/23 08:31:55;;;;;;;5.53;5.13;;;14.50;99.90;;;;;;5089893;28;20610;-63
2022/04/23 08:34:23;;;;;;;5.28;4.88;;;14.60;99.90;;;;;;5091021;28;20238;-62
2022/04/23 08:36:51;;;;;;;5.70;5.30;;;14.60;99.90;;;;;;5081947;28;20233;-62
2022/04/23 08:39:19;;;;;;;4.30;4.00;;;14.70;99.90;;;;;;5088464;28;20226;-66
2022/04/23 08:41:48;;;;;;;4.88;4.47;;;14.80;99.90;;;;;;5081749;28;20211;-63
2022/04/23 08:44:16;;;;;;;4.65;4.25;;;15.10;99.90;;;;;;5085387;28;20287;-65
2022/04/23 08:46:45;;;;;;;5.13;4.65;;;15.20;99.90;;;;;;5084006;28;20264;-64
2022/04/23 08:49:16;;;;;;;4.40;4.10;;;15.30;99.90;;;;;;5082964;28;20199;-63
2022/04/23 08:51:48;;;;;;;4.95;4.65;;;15.60;99.90;;;;;;5082654;28;20593;-63
2022/04/23 08:54:16;;;;;;;4.70;4.40;;;15.80;99.90;;;;;;5079070;28;20256;-65
2022/04/23 08:56:46;;;;;;;4.57;4.18;;;15.80;99.90;;;;;;5084176;28;20681;-64
2022/04/23 08:59:17;;;;;;;5.10;4.20;;;15.80;99.90;;;;;;5084334;28;20210;-64
2022/04/23 09:01:49;;;;;;;5.30;4.82;;;15.70;99.90;;;;;;5082953;28;20272;-64
2022/04/23 09:04:17;;;;;;;4.60;4.30;;;15.70;99.90;;;;;;5083954;28;21316;-64
2022/04/23 09:06:47;;;;;;;4.25;4.00;;;15.70;99.90;;;;;;5085569;28;20630;-64
2022/04/23 09:09:17;;;;;;;5.78;5.38;;;15.60;99.90;;;;;;5087162;28;20206;-64
2022/04/23 09:11:46;;;;;;;4.95;4.63;;;15.60;99.90;;;;;;5085476;28;20237;-64
2022/04/23 09:14:27;;;;;;;5.82;5.38;;;15.40;99.90;;;;;;5083907;28;20339;-64
2022/04/23 09:25:29;;;;;;;6.05;5.57;;;15.30;99.90;;;;;;5084213;28;20765;-63
2022/04/23 09:28:13;;;;;;;5.32;4.93;;;15.40;99.90;;;;;;5082931;28;20329;-64
2022/04/23 09:30:43;;;;;;;5.68;5.15;;;15.30;99.90;;;;;;5083463;28;20284;-63
2022/04/23 09:33:12;;;;;;;5.70;5.30;;;15.30;99.90;;;;;;5083651;28;20190;-63
2022/04/23 09:35:53;;;;;;;5.10;4.70;;;15.40;99.90;;;;;;5083328;28;21498;-63
2022/04/23 09:38:21;;;;;;;5.20;4.80;;;15.30;99.90;;;;;;5084067;28;20285;-64
2022/04/23 09:40:53;;;;;;;5.20;4.72;;;15.30;99.90;;;;;;5083206;28;20229;-64
2022/04/23 09:43:29;;;;;;;6.70;4.45;;;15.40;99.90;;;;;;5082131;28;20198;-65
2022/04/23 09:46:04;;;;;;;5.10;4.70;;;15.50;99.90;;;;;;5084842;28;20193;-64
2022/04/23 09:48:39;;;;;;;5.55;5.15;;;15.60;99.90;;;;;;5085040;28;20227;-64
2022/04/23 09:51:20;;;;;;;5.00;4.70;;;15.50;99.90;;;;;;5083819;28;20206;-63
2022/04/23 09:53:48;;;;;;;5.85;5.35;;;15.60;99.90;;;;;;5082227;28;20591;-64
2022/04/23 09:56:19;;;;;;;8.60;5.25;;;15.80;99.90;;;;;;5084867;28;20199;-62
2022/04/23 09:58:47;;;;;;;5.97;5.47;;;16.20;99.90;;;;;;5083046;28;20186;-65
2022/04/23 10:01:19;;;;;;;5.18;4.75;;;16.80;99.90;;;;;;5082625;28;20194;-65
2022/04/23 10:03:51;;;;;;;4.40;4.10;;;17.30;99.90;;;;;;5081909;28;20218;-63
2022/04/23 10:06:21;;;;;;;6.25;5.38;;;17.60;99.90;;;;;;5085827;28;20769;-65
2022/04/23 10:08:51;;;;;;;5.10;4.75;;;17.60;99.90;;;;;;5082691;28;20215;-65
2022/04/23 10:11:22;;;;;;;4.95;4.55;;;17.40;99.90;;;;;;5082146;28;20214;-65
2022/04/23 10:13:56;;;;;;;5.15;4.68;;;17.10;99.90;;;;;;5081635;28;20207;-63
2022/04/23 10:16:26;;;;;;;5.35;4.95;;;16.70;99.90;;;;;;5082773;28;20244;-63
2022/04/23 10:18:56;;;;;;;4.97;4.68;;;16.60;99.90;;;;;;5082565;28;20213;-64
2022/04/23 10:21:30;;;;;;;5.53;5.13;;;16.50;99.90;;;;;;5087230;28;20203;-64
2022/04/23 10:24:07;;;;;;;5.53;5.13;;;16.40;99.90;;;;;;5081408;28;20215;-64
2022/04/23 10:26:44;;;;;;;5.75;5.28;;;16.40;99.90;;;;;;5087380;28;20221;-64
2022/04/23 10:29:14;;;;;;;7.25;5.00;;;16.20;99.90;;;;;;5083215;28;20218;-64
2022/04/23 10:31:44;;;;;;;6.00;5.50;;;16.20;99.90;;;;;;5083904;28;20198;-64
2022/04/23 10:34:32;;;;;;;5.72;5.20;;;16.20;99.90;;;;;;5082820;28;20295;-64
2022/04/23 10:37:17;;;;;;;5.53;5.13;;;16.20;99.90;;;;;;5085299;28;20229;-65
2022/04/23 10:39:45;;;;;;;5.90;5.30;;;16.30;99.90;;;;;;5091629;28;20625;-64
2022/04/23 10:42:14;;;;;;;7.97;5.65;;;16.40;99.90;;;;;;5088777;28;20811;-63
2022/04/23 10:44:43;;;;;;;5.63;5.20;;;16.50;99.90;;;;;;5088208;28;20314;-63
2022/04/23 10:47:15;;;;;;;6.47;5.60;;;16.30;99.90;;;;;;5087357;28;20281;-64
2022/04/23 10:49:44;;;;;;;5.60;5.10;;;16.10;99.90;;;;;;5085068;28;20644;-65
2022/04/23 10:52:35;;;;;;;6.30;5.80;;;16.00;99.90;;;;;;5086641;28;20679;-63
2022/04/23 10:55:03;;;;;;;5.18;4.88;;;15.90;99.90;;;;;;5092463;28;20222;-64
2022/04/23 10:57:31;;;;;;;6.63;6.13;;;15.80;99.90;;;;;;5089363;28;20625;-64
2022/04/23 11:00:10;;;;;;;5.57;5.15;;;15.70;99.90;;;;;;5089849;28;20215;-63
2022/04/23 11:02:40;;;;;;;8.00;6.22;;;15.60;99.90;;;;;;5090215;28;20206;-64
2022/04/23 11:14:07;;;;;;;7.22;6.65;;;15.30;99.90;;;;;;5085777;28;20333;-62
2022/04/23 11:16:36;;;;;;;7.50;6.90;;;15.30;99.90;;;;;;5093720;28;20207;-63
2022/04/23 11:19:07;;;;;;;7.55;6.85;;;15.20;99.90;;;;;;5081791;28;20609;-63
2022/04/23 11:21:36;;;;;;;8.77;8.07;;;15.20;99.90;;;;;;5084596;28;20203;-63
2022/04/23 11:24:04;;;;;;;7.68;7.10;;;15.20;99.90;;;;;;5088357;28;20227;-63
2022/04/23 11:26:42;;;;;;;8.88;8.18;;;15.10;99.90;;;;;;5092392;28;20595;-63
2022/04/23 11:29:11;;;;;;;9.32;8.52;;;15.10;99.90;;;;;;5090413;28;20218;-62
2022/04/23 11:31:38;;;;;;;9.30;8.48;;;15.20;99.90;;;;;;5092179;28;20289;-63
2022/04/23 11:34:08;;;;;;;9.20;8.43;;;15.30;99.90;;;;;;5092195;28;20253;-63
2022/04/23 11:36:37;;;;;;;8.57;7.88;;;15.40;99.90;;;;;;5089546;28;20247;-63
2022/04/23 11:39:09;;;;;;;9.48;8.75;;;15.50;99.90;;;;;;5081864;28;20321;-63
2022/04/23 11:41:38;;;;;;;8.85;8.10;;;15.50;99.90;;;;;;5087651;28;20303;-64
2022/04/23 11:44:14;;;;;;;7.78;7.13;;;15.50;99.90;;;;;;5082639;28;20310;-64
2022/04/23 11:46:45;;;;;;;9.30;8.52;;;15.50;99.90;;;;;;5085945;28;20247;-64
2022/04/23 11:49:29;;;;;;;10.10;9.20;;;15.50;99.90;;;;;;5088557;28;20212;-64
2022/04/23 11:52:01;;;;;;;8.63;7.82;;;15.60;99.90;;;;;;5083644;28;20205;-64
2022/04/23 11:54:33;;;;;;;8.93;8.15;;;15.80;99.90;;;;;;5084141;28;20254;-63
2022/04/23 11:57:01;;;;;;;8.80;7.82;;;15.90;99.90;;;;;;5085283;28;20234;-62
2022/04/23 11:59:37;;;;;;;9.23;8.43;;;16.00;99.90;;;;;;5083362;28;20274;-64
2022/04/23 12:02:06;;;;;;;8.80;7.95;;;16.00;99.90;;;;;;5082188;28;20195;-64
2022/04/23 12:04:48;;;;;;;9.13;8.32;;;16.10;99.90;;;;;;5086132;28;20272;-64
2022/04/23 12:07:16;;;;;;;8.27;7.68;;;16.20;99.90;;;;;;5079711;28;20691;-64
2022/04/23 12:09:46;;;;;;;8.68;7.88;;;16.10;99.90;;;;;;5084207;28;20293;-64
2022/04/23 12:12:16;;;;;;;9.82;9.00;;;16.10;99.90;;;;;;5082615;28;20673;-64
2022/04/23 12:14:45;;;;;;;9.18;8.30;;;16.10;99.90;;;;;;5084524;28;20244;-64
2022/04/23 12:17:20;;;;;;;9.10;8.40;;;16.20;99.90;;;;;;5084181;28;20241;-64
2022/04/23 12:19:50;;;;;;;10.50;9.57;;;16.30;99.90;;;;;;5084156;28;20377;-64
2022/04/23 12:22:26;;;;;;;9.55;8.70;;;16.40;99.90;;;;;;5084924;28;20697;-64
2022/04/23 12:25:08;;;;;;;10.70;9.70;;;16.50;99.90;;;;;;5083421;28;20253;-64
2022/04/23 12:27:55;;;;;;;9.75;8.93;;;16.50;99.90;;;;;;5085824;28;20207;-64
2022/04/23 12:41:40;;;;;;;12.93;11.88;;;17.30;99.90;;;;;;5083635;28;20265;-62
2022/04/23 12:44:18;;;;;;;11.73;10.63;;;17.40;99.90;;;;;;5084027;28;20222;-62
2022/04/23 12:46:59;;;;;;;11.73;10.73;;;17.50;99.90;;;;;;5084400;28;20226;-63
2022/04/23 12:49:46;;;;;;;11.77;10.65;;;17.60;99.90;;;;;;5082303;28;21277;-62
2022/04/23 12:52:20;;;;;;;12.15;11.15;;;17.70;99.90;;;;;;5084864;28;20220;-63
2022/04/23 12:55:13;;;;;;;11.50;10.50;;;17.50;99.90;;;;;;5082651;28;20246;-62
2022/04/23 12:57:42;;;;;;;11.15;10.15;;;17.30;99.90;;;;;;5082775;28;20205;-62
2022/04/23 13:00:12;;;;;;;10.82;9.80;;;17.20;99.90;;;;;;5087228;28;20198;-62
2022/04/23 13:02:43;;;;;;;11.23;10.20;;;17.20;99.90;;;;;;5080302;28;20309;-62
2022/04/23 13:05:12;;;;;;;12.48;11.02;;;17.20;99.90;;;;;;5086541;28;20702;-63
2022/04/23 13:10:28;;;;;;;12.60;11.60;;;17.30;99.90;;;;;;5084468;28;20754;-63
2022/04/23 13:12:56;;;;;;;11.10;10.00;;;17.20;99.90;;;;;;5086136;28;20230;-63
2022/04/23 13:15:24;;;;;;;12.60;11.40;;;16.90;99.90;;;;;;5083882;28;20621;-62
2022/04/23 13:17:52;;;;;;;13.00;11.80;;;16.80;99.90;;;;;;5082951;28;20278;-62
2022/04/23 13:20:20;;;;;;;14.32;13.13;;;16.70;99.90;;;;;;5085764;28;20191;-62
2022/04/23 13:22:50;;;;;;;12.77;11.52;;;16.60;99.90;;;;;;5082909;28;20202;-63
2022/04/23 13:25:23;;;;;;;13.82;12.60;;;16.50;99.90;;;;;;5083301;28;20226;-62
2022/04/23 13:27:51;;;;;;;13.55;12.27;;;16.50;99.90;;;;;;5082691;28;20206;-62
2022/04/23 13:30:19;;;;;;;14.15;12.85;;;16.40;99.90;;;;;;5090376;28;20759;-62
2022/04/23 13:32:47;;;;;;;14.93;13.52;;;16.20;99.90;;;;;;5082971;28;20285;-63